Aviation Digital Data Service (ADDS)

Output produced by METARs form (1927 UTC 23 June 2018)
found at http://aviationweather.gov/adds/metars/
 
KPIT 231737Z 2318/2424 22010KT P6SM VCTS OVC035CB 
     FM232200 23008KT P6SM BKN050 
     FM241200 25006KT P6SM BKN020 
     FM241600 25006KT P6SM VCSH BKN035 
     FM242200 29006KT P6SM BKN080